Du har inga inställningar för hoppväder.nu

Hoppväder.nu

Senast uppdaterat 14:24

UTC-tid

2022-11-27 kl. 13:24


Sol och måne

Solen går upp 8:27 och går ner 15:09 (beräknade cirkatider)
Nästa fullmåne blir om 11 dagar (2022-12-08)

METAR

ESOE (Örebro)
(34 minuter sedan)
ESOE 271250Z AUTO 09006KT 6000 BR VV003 00/M00 Q1027=



ESOK (Karlstad)
(34 minuter sedan)
ESOK 271250Z AUTO 09007KT 0500 R03/1300D R21/1100N FZFG VV002 M00/M00 Q1025=



ESGR (Skövde)
ESGR NIL=



ESSD (Borlänge)
(34 minuter sedan)
ESSD 271250Z AUTO 11006KT 9999 OVC003/// M01/M01 Q1026=



ESOW (Västerås)
(34 minuter sedan)
ESOW 271250Z AUTO 04004KT 9999 FEW007/// OVC020/// 01/M01 Q1027=



TAF

ESOE (Örebro)
ESOE



ESOK (Karlstad)
ESOK



ESGR (Skövde)
ESGR



ESSD (Borlänge)
ESSD



ESOW (Västerås)
ESOW





Kodnycklar till TAF och METAR






LHP

(Örebro är område se32g i Delområde 4)

Översikt

ÖVERSIKT FÖR OMRÅDE se3 UTFÄRDAD 271242

GÄLLANDE DEN 27 NOVEMBER 2022 MELLAN 13 OCH 21 UTC


Väderöversikt
Sydlig luftström med fuktig luft.

Sikt under 5 kilometer eller molnbas under 1000 fot
13-17UTC: I hela området

Måttlig eller svår isbildning
13-17UTC: I hela området

Måttlig eller svår turbulens
Väntas inte förekomma under perioden


Delområde 4

PROGNOS FÖR OMRÅDE se32 UTFÄRDAD 271242
GÄLLANDE DEN 27 NOVEMBER 2022 MELLAN 13 OCH 21 UTC


Måttlig eller svår turbulens
13-21UTC: I hela området: Väntas inte förekomma under perioden

Måttlig eller svår isbildning
13-21UTC: Område se32b,se32h,se32i: måttlig isbildning 500ft - FL050, måttlig isbildning 3000ft - FL050
Område se32a,se32f: måttlig isbildning 500ft - FL050, måttlig isbildning 1500ft - FL090
Område se32c,se32j: måttlig isbildning 3000ft - FL050
Område se32d,se32g,se32e: måttlig isbildning 500ft - FL050


Sikt/Väder/Moln
13-21UTC: Område se32d,se32j,se32i: Sikt >8km i dis, lokalt <1.5km i dimma, duggregn. Molnbas <500ft, lokalt 1500ft - 2000ft.
Område se32a,se32f: Sikt >8km, lokalt 1.5km - 3km i dis, duggregn. Molnbas >2000ft, lokalt 500ft - 1000ft.
Område se32c,se32b,se32h,se32g,se32e: Sikt <1.5km - >8km i dis, dimma, duggregn. Molnbas <500ft - >2000ft.


Molnöversida
13-21UTC: Område se32d,se32c,se32b,se32h,se32g,se32e,se32j,se32i: Molnöversida FL050.
Område se32a,se32f: Molnöversida FL090.


CB/TCU Moln
13-21UTC: I hela området: Väntas inte förekomma under perioden

Nollgradersisoterm
13-21UTC: Område se32c,se32j,se32i: Noll grader 1000ft - 4000ft.
Område se32g: Noll grader 500ft - 2000ft.
Område se32h: Noll grader 1000ft - 2000ft.
Område se32b: Noll grader 500ft - 4000ft.
Område se32a,se32f: Noll grader 500ft - 1500ft.
Område se32d,se32e: Noll grader SFC - 2000ft.


Vind vid marken
13-15UTC: Område se32g: NO/0-5 knop.
Område se32j: O-SO/1-8 knop, byar upp till 15 knop.
Område se32i: O-SO/0-10 knop, byar upp till 14 knop.
Område se32d: O-SO/0-6 knop.
Område se32a: NO-O/1-10 knop, byar upp till 15 knop.
Område se32b: Vrb/0-11 knop, byar upp till 14 knop.
Område se32f: N-NO/1-4 knop.
Område se32h: O-SO/0-6 knop, byar upp till 12 knop.

13-17UTC: Område se32e: NO/0-6 knop.

13-19UTC: Område se32c: Vrb/0-4 knop.

15-17UTC: Område se32f: NO/0-5 knop.
Område se32d: O/1-7 knop.
Område se32h: O-SO/0-7 knop, byar upp till 16 knop.
Område se32a: O/0-13 knop, byar upp till 17 knop.
Område se32j: O-SO/1-13 knop, byar upp till 18 knop.
Område se32i: O-SO/0-15 knop, byar upp till 18 knop.

15-19UTC: Område se32b: Vrb/0-12 knop, byar upp till 15 knop.
Område se32g: Lugnt.

17-19UTC: Område se32f: N-NO/0-5 knop.
Område se32j: O-SO/1-15 knop, byar upp till 23 knop.
Område se32e: NO-O/0-5 knop.
Område se32h: O-SO/0-12 knop, byar upp till 19 knop.
Område se32a: O-SO/0-14 knop, byar upp till 19 knop.
Område se32i: O-SO/1-13 knop, byar upp till 21 knop.
Område se32d: O/1-9 knop, byar upp till 14 knop.

19-21UTC: Område se32d: O/2-11 knop, byar upp till 15 knop.
Område se32h: O-SO/0-10 knop, byar upp till 20 knop.
Område se32i: O-SO/1-14 knop, byar upp till 20 knop.
Område se32g: NO-O/0-5 knop.
Område se32j: SO/0-17 knop, byar upp till 25 knop.
Område se32f: N-NO/0-4 knop.
Område se32b: Vrb/0-11 knop, byar upp till 15 knop.
Område se32a: O-SO/0-16 knop, byar upp till 21 knop.
Område se32e: NO-O/1-7 knop.
Område se32c: Vrb/0-6 knop.


Genomsnittlig vind och temperatur för området

2000ft:
13-15UTC: 170/7kt +0.
15-17UTC: 160/6kt +0.
17-19UTC: 160/7kt +0.
19-21UTC: 150/8kt +0.

FL050:
13-15UTC: 240/3kt -3.
15-17UTC: 210/3kt -3.
17-19UTC: 180/3kt -3.
19-21UTC: 170/5kt -3.

FL100:
13-15UTC: 10/3kt -9.
15-19UTC: Vrb/3kt -9.
19-21UTC: 130/4kt -9.

Lägsta QNH
13-15UTC: I hela området: 1023 hPa
15-21UTC: I hela området: 1022 hPa

OBS! endast utbredd måttlig eller svår isbildning och turbulens prognostiseras i LLF.
Avsaknad av isbildning och turbulens i prognosen utesluter inte förekomst av lätt isbildning och turbulens.
För indikation på lätt isbildning, var vänlig kontrollera om prognosen för molntopp ligger högre än nollgradersisotermen.
Förekomst av TCU eller CB medför alltid en risk för måttlig eller svår isbildning och turbulens även om det inte framgår explicit av prognosen.








Spotting

Hur fungerar spotthjälpen och Vindkartan?

Markvind är ca 0-3 m/s.
Vind på 600 m ca 4 m/s.
Vind på 1500 m ca 2 m/s.
Vind på 3000 m ca 2 m/s.
FXB flyger ca 34 m/s över marken på finalen.
Du driver ca 69 m bakåt i frifall. (93 m)
Lämplig spot är 6 sekunder eller 207 m innan gropen.
(-6s eller -207 m)
För små grupper eller ensamhoppare bör man vänta 4-6 sekunder mellan grupperna.
För större grupper bör man vänta 9-11 sekunder mellan grupperna.


Vindkartan

Senast uppdaterad 14:24




All data kommer från LFV.se